createdAt,value
2018-09-26T00:01:26.633Z,33.13
2018-09-26T00:04:07.420Z,33.70
2018-09-26T00:06:43.352Z,33.34
2018-09-26T00:09:19.344Z,33.51
2018-09-26T00:11:55.393Z,33.52
2018-09-26T00:14:32.729Z,33.77
2018-09-26T00:17:08.901Z,32.83
2018-09-26T00:20:02.202Z,33.31
2018-09-26T00:22:39.172Z,33.37
2018-09-26T00:25:15.585Z,33.51
2018-09-26T00:27:51.621Z,33.69
2018-09-26T00:30:27.907Z,33.15
2018-09-26T00:33:04.178Z,32.99
2018-09-26T00:35:40.491Z,33.12
2018-09-26T00:38:16.547Z,32.88
2018-09-26T00:40:52.493Z,33.78
2018-09-26T00:43:28.910Z,34.01
2018-09-26T00:46:05.093Z,33.19
2018-09-26T00:48:41.914Z,33.24
2018-09-26T00:51:21.316Z,34.03
2018-09-26T00:53:57.919Z,33.58
2018-09-26T00:56:35.576Z,33.02
2018-09-26T00:59:11.959Z,33.05
2018-09-26T01:01:48.734Z,34.21
2018-09-26T01:04:24.186Z,33.47
2018-09-26T01:07:00.184Z,33.93
2018-09-26T01:09:36.749Z,33.69
2018-09-26T01:12:15.772Z,33.05
2018-09-26T01:14:51.924Z,34.09
2018-09-26T01:17:28.059Z,33.60
2018-09-26T01:20:04.103Z,34.14
2018-09-26T01:22:40.763Z,33.49
2018-09-26T01:25:16.541Z,33.87
2018-09-26T01:27:52.885Z,33.55
2018-09-26T01:30:30.848Z,33.17
2018-09-26T01:35:00.738Z,33.15
2018-09-26T01:37:37.495Z,34.23
2018-09-26T01:40:13.490Z,34.30
2018-09-26T01:42:49.487Z,33.66
2018-09-26T01:45:24.934Z,34.25
2018-09-26T01:48:01.047Z,34.24
2018-09-26T01:50:37.289Z,34.36
2018-09-26T01:53:14.380Z,32.83
2018-09-26T01:58:47.160Z,33.23
2018-09-26T02:01:24.136Z,33.96
2018-09-26T02:04:00.394Z,33.92
2018-09-26T02:06:36.211Z,33.91
2018-09-26T02:09:15.463Z,34.77
2018-09-26T02:11:51.255Z,34.53
2018-09-26T02:14:26.896Z,33.87
2018-09-26T02:17:02.681Z,33.36
2018-09-26T02:19:38.182Z,34.57
2018-09-26T02:22:13.779Z,34.05
2018-09-26T02:24:49.915Z,34.51
2018-09-26T02:27:26.550Z,34.11
2018-09-26T02:30:02.764Z,33.86
2018-09-26T02:32:39.935Z,33.47
2018-09-26T02:35:16.787Z,34.60
2018-09-26T02:37:52.185Z,34.55
2018-09-26T02:40:29.611Z,34.08
2018-09-26T02:43:05.126Z,33.46
2018-09-26T02:45:41.317Z,33.97
2018-09-26T02:48:21.909Z,34.35
2018-09-26T02:50:58.966Z,33.65
2018-09-26T02:53:34.538Z,33.95
2018-09-26T02:56:10.624Z,34.29
2018-09-26T02:58:46.786Z,34.04
2018-09-26T03:01:22.365Z,33.93
2018-09-26T03:03:58.544Z,33.88
2018-09-26T03:06:34.403Z,33.79
2018-09-26T03:09:12.420Z,33.65
2018-09-26T03:11:48.021Z,34.07
2018-09-26T03:14:23.598Z,33.54
2018-09-26T03:16:59.802Z,34.02
2018-09-26T03:19:35.585Z,33.88
2018-09-26T03:22:11.114Z,34.27
2018-09-26T03:24:46.572Z,33.74
2018-09-26T03:27:22.446Z,34.65
2018-09-26T03:29:59.618Z,34.31
2018-09-26T03:32:35.416Z,33.67
2018-09-26T03:35:11.438Z,34.39
2018-09-26T03:37:47.017Z,34.21
2018-09-26T03:45:17.600Z,34.25
2018-09-26T03:47:52.999Z,33.93
2018-09-26T03:50:28.545Z,34.98
2018-09-26T03:53:04.252Z,34.18
2018-09-26T03:55:39.812Z,33.85
2018-09-26T03:58:15.574Z,34.54
2018-09-26T04:00:51.219Z,34.22
2018-09-26T04:03:27.113Z,34.23
2018-09-26T04:06:07.779Z,34.33
2018-09-26T04:08:43.664Z,34.40
2018-09-26T04:11:19.555Z,34.36
2018-09-26T04:13:56.195Z,34.90
2018-09-26T04:16:31.842Z,34.96
2018-09-26T04:19:07.713Z,34.52
2018-09-26T04:21:43.990Z,34.61
2018-09-26T04:24:20.219Z,34.31
2018-09-26T04:26:56.393Z,35.11
2018-09-26T04:29:33.662Z,34.91
2018-09-26T04:32:09.804Z,34.74
2018-09-26T04:34:45.670Z,34.70
2018-09-26T04:37:21.710Z,34.14
2018-09-26T04:39:58.005Z,34.86
2018-09-26T04:42:35.013Z,34.14
2018-09-26T04:45:11.005Z,34.81
2018-09-26T04:47:47.005Z,34.54
2018-09-26T04:50:23.045Z,35.03
2018-09-26T04:53:01.103Z,35.26
2018-09-26T04:55:37.113Z,35.47
2018-09-26T04:58:13.038Z,34.61
2018-09-26T05:00:49.116Z,35.40
2018-09-26T05:03:25.296Z,34.67
2018-09-26T05:06:01.582Z,34.79
2018-09-26T05:08:38.181Z,34.88
2018-09-26T05:11:14.008Z,34.39
2018-09-26T05:13:50.961Z,35.63
2018-09-26T05:16:27.046Z,34.75
2018-09-26T05:19:03.019Z,35.61
2018-09-26T05:21:39.051Z,34.31
2018-09-26T05:24:15.631Z,34.52
2018-09-26T05:26:51.859Z,34.78
2018-09-26T05:29:27.844Z,35.43
2018-09-26T05:32:03.691Z,34.43
2018-09-26T05:34:39.693Z,35.48
2018-09-26T05:37:16.477Z,35.08
2018-09-26T05:39:52.609Z,34.56
2018-09-26T05:42:28.607Z,35.13
2018-09-26T05:45:04.640Z,34.90
2018-09-26T05:47:40.608Z,35.21
2018-09-26T05:50:17.089Z,35.11
2018-09-26T05:52:53.242Z,35.31
2018-09-26T05:55:29.613Z,34.80
2018-09-26T05:58:05.728Z,34.92
2018-09-26T06:00:42.038Z,35.68
2018-09-26T06:03:18.166Z,35.74
2018-09-26T06:05:54.599Z,35.85
2018-09-26T06:08:30.560Z,35.53
2018-09-26T06:11:07.142Z,34.69
2018-09-26T06:13:43.793Z,35.95
2018-09-26T06:16:19.766Z,35.07
2018-09-26T06:18:55.746Z,34.56
2018-09-26T06:21:32.406Z,35.73
2018-09-26T06:24:09.037Z,35.29
2018-09-26T06:26:44.862Z,35.25
2018-09-26T06:29:20.883Z,35.69
2018-09-26T06:34:52.669Z,35.10
2018-09-26T06:37:29.292Z,34.72
2018-09-26T06:40:05.609Z,35.20
2018-09-26T06:42:42.043Z,35.17
2018-09-26T06:45:17.878Z,34.99
2018-09-26T06:47:54.877Z,34.76
2018-09-26T06:50:30.869Z,35.28
2018-09-26T06:53:06.870Z,35.79
2018-09-26T06:55:43.053Z,35.44
2018-09-26T06:58:19.673Z,35.79
2018-09-26T07:00:55.876Z,35.19
2018-09-26T07:03:32.062Z,35.56
2018-09-26T07:06:07.835Z,35.94
2018-09-26T07:08:43.890Z,36.58
2018-09-26T07:11:19.818Z,36.52
2018-09-26T07:13:56.122Z,36.06
2018-09-26T07:16:32.004Z,36.32
2018-09-26T07:19:08.085Z,36.63
2018-09-26T07:21:43.738Z,35.83
2018-09-26T07:24:19.715Z,36.42
2018-09-26T07:26:56.080Z,36.68
2018-09-26T07:29:32.067Z,35.90
2018-09-26T07:32:08.297Z,36.80
2018-09-26T07:34:44.057Z,36.52
2018-09-26T07:37:20.071Z,36.35
2018-09-26T07:39:56.064Z,36.83
2018-09-26T07:42:31.886Z,36.97
2018-09-26T07:45:07.885Z,37.11
2018-09-26T07:47:43.867Z,36.54
2018-09-26T07:50:19.869Z,36.71
2018-09-26T07:52:55.725Z,35.85
2018-09-26T07:55:31.701Z,36.27
2018-09-26T07:58:07.643Z,36.78
2018-09-26T08:00:43.701Z,36.28
2018-09-26T08:03:19.706Z,37.24
2018-09-26T08:05:55.850Z,36.21
2018-09-26T08:08:32.116Z,37.12
2018-09-26T08:11:08.120Z,36.40
2018-09-26T08:13:44.055Z,36.10
2018-09-26T08:16:23.737Z,37.22
2018-09-26T08:18:59.881Z,35.95
2018-09-26T08:21:36.383Z,36.05
2018-09-26T08:24:13.000Z,37.05
2018-09-26T08:26:48.930Z,36.65
2018-09-26T08:29:24.925Z,36.83
2018-09-26T08:32:02.136Z,37.06
2018-09-26T08:34:38.041Z,36.62
2018-09-26T08:37:14.090Z,36.64
2018-09-26T08:39:49.845Z,37.03
2018-09-26T08:42:25.849Z,36.74
2018-09-26T08:45:01.826Z,36.29
2018-09-26T08:47:38.425Z,37.37
2018-09-26T08:50:14.877Z,36.09
2018-09-26T08:52:51.267Z,36.35
2018-09-26T08:55:27.672Z,37.00
2018-09-26T08:58:03.905Z,36.70
2018-09-26T09:00:40.369Z,37.24
2018-09-26T09:03:16.890Z,36.37
2018-09-26T09:05:53.749Z,36.87
2018-09-26T09:08:30.541Z,37.43
2018-09-26T09:11:06.525Z,36.41
2018-09-26T09:13:42.924Z,37.44
2018-09-26T09:16:19.276Z,36.19
2018-09-26T09:18:55.704Z,36.60
2018-09-26T09:21:31.754Z,37.23
2018-09-26T09:24:07.774Z,36.95
2018-09-26T09:26:43.860Z,36.94
2018-09-26T09:29:20.054Z,36.94
2018-09-26T09:31:55.925Z,37.49
2018-09-26T09:34:31.745Z,36.26
2018-09-26T09:37:08.098Z,36.99
2018-09-26T09:39:44.472Z,36.45
2018-09-26T09:42:20.840Z,36.49
2018-09-26T09:44:57.142Z,36.33
2018-09-26T09:47:33.293Z,36.32
2018-09-26T09:50:09.695Z,37.16
2018-09-26T09:52:45.692Z,37.39
2018-09-26T09:55:21.821Z,36.42
2018-09-26T09:57:57.957Z,36.78
2018-09-26T10:00:37.824Z,36.99
2018-09-26T10:03:15.590Z,37.10
2018-09-26T10:05:52.565Z,36.36
2018-09-26T10:08:28.544Z,37.52
2018-09-26T10:11:04.514Z,36.35
2018-09-26T10:13:40.684Z,37.10
2018-09-26T10:16:16.953Z,36.37
2018-09-26T10:18:53.081Z,36.88
2018-09-26T10:21:29.186Z,37.50
2018-09-26T10:24:05.296Z,36.90
2018-09-26T10:26:41.133Z,36.46
2018-09-26T10:29:17.747Z,36.66
2018-09-26T10:31:53.714Z,36.81
2018-09-26T10:35:32.136Z,36.91
2018-09-26T10:38:09.337Z,36.74
2018-09-26T10:40:44.988Z,36.29
2018-09-26T10:43:21.141Z,36.51
2018-09-26T10:45:57.364Z,36.52
2018-09-26T10:48:33.572Z,37.51
2018-09-26T10:51:09.963Z,36.84
2018-09-26T10:53:45.946Z,36.15
2018-09-26T10:56:21.887Z,36.72
2018-09-26T11:02:06.774Z,36.67
2018-09-26T11:04:49.323Z,37.22
2018-09-26T11:07:32.222Z,36.86
2018-09-26T11:10:07.969Z,36.21
2018-09-26T11:12:43.983Z,37.01
2018-09-26T11:15:26.747Z,36.60
2018-09-26T11:18:02.953Z,36.59
2018-09-26T11:20:41.414Z,36.07
2018-09-26T11:23:17.147Z,36.48
2018-09-26T11:25:53.172Z,36.55
2018-09-26T11:28:29.171Z,37.14
2018-09-26T11:31:04.980Z,36.72
2018-09-26T11:33:41.182Z,37.02
2018-09-26T11:36:15.497Z,37.31
2018-09-26T11:38:51.333Z,36.03
2018-09-26T11:41:27.157Z,36.22
2018-09-26T11:44:03.697Z,36.51
2018-09-26T11:46:39.992Z,36.82
2018-09-26T11:49:15.977Z,37.04
2018-09-26T11:51:52.733Z,36.63
2018-09-26T11:54:29.103Z,36.91
2018-09-26T11:57:05.197Z,36.62
2018-09-26T11:59:41.192Z,36.20
2018-09-26T12:02:17.480Z,36.49
2018-09-26T12:04:53.797Z,36.56
2018-09-26T12:07:29.831Z,35.92
2018-09-26T12:10:06.040Z,36.56
2018-09-26T12:12:42.175Z,36.44
2018-09-26T12:15:18.159Z,36.11
2018-09-26T12:17:54.168Z,36.45
2018-09-26T12:20:30.016Z,35.92
2018-09-26T12:23:06.182Z,36.09
2018-09-26T12:25:42.175Z,36.88
2018-09-26T12:28:18.810Z,36.91
2018-09-26T12:30:55.020Z,36.68
2018-09-26T12:33:30.997Z,36.62
2018-09-26T12:36:07.627Z,36.46
2018-09-26T12:38:44.122Z,36.65
2018-09-26T12:41:20.930Z,36.17
2018-09-26T12:43:56.909Z,37.21
2018-09-26T12:46:32.993Z,36.47
2018-09-26T12:49:09.174Z,36.35
2018-09-26T12:51:44.985Z,36.54
2018-09-26T12:54:21.023Z,36.39
2018-09-26T12:56:57.857Z,36.62
2018-09-26T12:59:33.825Z,36.79
2018-09-26T13:02:09.850Z,36.33
2018-09-26T13:04:45.849Z,36.64
2018-09-26T13:08:25.161Z,36.59
2018-09-26T13:11:01.005Z,36.35
2018-09-26T13:13:36.822Z,36.46
2018-09-26T13:16:13.034Z,36.92
2018-09-26T13:18:49.013Z,36.20
2018-09-26T13:21:26.134Z,36.57
2018-09-26T13:24:01.983Z,36.20
2018-09-26T13:26:38.909Z,36.45
2018-09-26T13:29:15.012Z,36.17
2018-09-26T13:31:50.913Z,36.46
2018-09-26T13:34:27.018Z,36.50
2018-09-26T13:37:03.016Z,36.87
2018-09-26T13:39:39.013Z,36.54
2018-09-26T13:42:14.963Z,36.72
2018-09-26T13:44:51.005Z,36.68
2018-09-26T13:47:27.142Z,36.90
2018-09-26T13:50:03.262Z,37.31
2018-09-26T13:52:39.141Z,36.95
2018-09-26T13:55:14.930Z,36.67
2018-09-26T13:57:50.910Z,37.13
2018-09-26T14:00:28.364Z,37.28
2018-09-26T14:03:05.194Z,37.71
2018-09-26T14:05:41.774Z,37.59
2018-09-26T14:08:17.818Z,37.49
2018-09-26T14:10:53.838Z,37.30
2018-09-26T14:13:30.202Z,37.11
2018-09-26T14:16:06.202Z,37.74
2018-09-26T14:18:42.026Z,37.71
2018-09-26T14:21:18.044Z,36.99
2018-09-26T14:23:54.028Z,38.26
2018-09-26T14:26:29.924Z,37.82
2018-09-26T14:29:06.034Z,38.39
2018-09-26T14:31:42.033Z,37.82
2018-09-26T14:34:18.030Z,38.08
2018-09-26T14:36:54.229Z,38.44
2018-09-26T14:39:30.144Z,37.65
2018-09-26T14:42:06.690Z,37.47
2018-09-26T14:44:42.694Z,38.34
2018-09-26T14:47:18.715Z,38.50
2018-09-26T14:49:55.384Z,38.64
2018-09-26T14:52:31.834Z,38.03
2018-09-26T14:55:07.901Z,38.39
2018-09-26T14:57:43.849Z,38.88
2018-09-26T15:00:19.777Z,38.86
2018-09-26T15:02:56.011Z,38.73
2018-09-26T15:05:31.872Z,38.21
2018-09-26T15:08:08.037Z,38.62
2018-09-26T15:10:44.383Z,38.59
2018-09-26T15:13:20.925Z,39.43
2018-09-26T15:15:57.044Z,39.35
2018-09-26T15:18:33.225Z,39.19
2018-09-26T15:21:09.053Z,38.59
2018-09-26T15:23:46.059Z,38.33
2018-09-26T15:26:22.279Z,39.07
2018-09-26T15:28:58.231Z,39.59
2018-09-26T15:31:34.881Z,39.18
2018-09-26T15:34:11.249Z,38.87
2018-09-26T15:36:47.229Z,39.18
2018-09-26T15:39:23.177Z,39.42
2018-09-26T15:41:58.803Z,39.07
2018-09-26T15:44:34.812Z,39.05
2018-09-26T15:47:11.337Z,39.11
2018-09-26T15:49:47.445Z,38.69
2018-09-26T15:52:23.465Z,39.50
2018-09-26T15:54:59.467Z,39.23
2018-09-26T15:57:35.239Z,39.93
2018-09-26T16:00:12.099Z,39.28
2018-09-26T16:02:48.253Z,39.87
2018-09-26T16:05:23.894Z,39.58
2018-09-26T16:08:00.487Z,39.20
2018-09-26T16:10:36.429Z,40.30
2018-09-26T16:13:12.237Z,39.54
2018-09-26T16:15:48.073Z,39.62
2018-09-26T16:18:24.255Z,39.79
2018-09-26T16:21:00.241Z,39.73
2018-09-26T16:23:36.423Z,39.52
2018-09-26T16:26:12.480Z,40.45
2018-09-26T16:28:48.750Z,39.91
2018-09-26T16:31:24.938Z,40.01
2018-09-26T16:34:01.069Z,40.09
2018-09-26T16:36:36.977Z,40.09
2018-09-26T16:39:16.232Z,39.52
2018-09-26T16:41:52.249Z,40.71
2018-09-26T16:44:28.079Z,39.92
2018-09-26T16:47:04.840Z,40.07
2018-09-26T16:49:41.484Z,40.03
2018-09-26T16:52:17.960Z,40.19
2018-09-26T16:54:53.833Z,40.84
2018-09-26T16:57:29.896Z,40.72
2018-09-26T17:00:06.125Z,40.21
2018-09-26T17:02:41.956Z,40.52
2018-09-26T17:05:17.847Z,40.24
2018-09-26T17:07:53.536Z,41.37
2018-09-26T17:10:28.853Z,41.54
2018-09-26T17:13:04.479Z,41.74
2018-09-26T17:15:39.906Z,41.46
2018-09-26T17:18:16.072Z,41.22
2018-09-26T17:20:51.660Z,41.48
2018-09-26T17:23:27.327Z,41.00
2018-09-26T17:26:26.081Z,40.46
2018-09-26T17:29:01.910Z,40.96
2018-09-26T17:31:37.465Z,41.33
2018-09-26T17:34:13.110Z,41.10
2018-09-26T17:36:48.718Z,40.88
2018-09-26T17:39:24.283Z,41.88
2018-09-26T17:41:59.886Z,41.48
2018-09-26T17:44:35.463Z,40.69
2018-09-26T17:48:02.448Z,41.27
2018-09-26T17:52:18.183Z,40.57
2018-09-26T17:54:53.846Z,41.86
2018-09-26T17:57:29.269Z,41.16
2018-09-26T18:00:04.760Z,41.38
2018-09-26T18:02:40.465Z,40.53
2018-09-26T18:05:15.801Z,41.56
2018-09-26T18:07:51.486Z,41.10
2018-09-26T18:10:26.737Z,41.32
2018-09-26T18:13:02.058Z,40.61
2018-09-26T18:15:37.449Z,40.67
2018-09-26T18:18:13.277Z,40.72
2018-09-26T18:20:48.724Z,40.47
2018-09-26T18:23:24.149Z,40.16
2018-09-26T18:25:59.862Z,40.34
2018-09-26T18:28:33.343Z,40.25
2018-09-26T18:33:35.044Z,40.10
2018-09-26T18:36:10.813Z,40.71
2018-09-26T18:38:46.535Z,39.86
2018-09-26T18:41:22.249Z,40.12
2018-09-26T18:43:57.456Z,39.30
2018-09-26T18:46:33.014Z,40.44
2018-09-26T18:49:08.758Z,39.78
2018-09-26T18:51:44.297Z,40.28
2018-09-26T18:54:19.828Z,39.23
2018-09-26T18:56:55.400Z,39.57
2018-09-26T18:59:31.016Z,39.80
2018-09-26T19:02:06.489Z,38.98
2018-09-26T19:04:42.058Z,39.07
2018-09-26T19:07:17.474Z,38.74
2018-09-26T19:09:53.017Z,39.42
2018-09-26T19:12:28.659Z,39.90
2018-09-26T19:15:04.520Z,39.90
2018-09-26T19:17:39.807Z,39.23
2018-09-26T19:20:15.476Z,38.99
2018-09-26T19:22:51.043Z,38.45
2018-09-26T19:28:28.311Z,38.89
2018-09-26T19:31:03.500Z,39.21
2018-09-26T19:33:39.098Z,39.04
2018-09-26T19:36:14.932Z,38.59
2018-09-26T19:38:50.487Z,39.54
2018-09-26T19:41:25.940Z,38.51
2018-09-26T19:44:01.424Z,38.25
2018-09-26T19:46:37.306Z,38.63
2018-09-26T19:49:12.744Z,38.52
2018-09-26T19:51:48.125Z,38.53
2018-09-26T19:54:23.733Z,38.47
2018-09-26T19:56:59.389Z,38.68
2018-09-26T19:59:34.960Z,37.91
2018-09-26T20:02:10.370Z,37.94
2018-09-26T20:04:46.161Z,39.15
2018-09-26T20:07:22.823Z,38.38
2018-09-26T20:09:58.506Z,38.19
2018-09-26T20:12:33.907Z,38.35
2018-09-26T20:19:58.048Z,37.67
2018-09-26T20:22:33.757Z,38.84
2018-09-26T20:25:10.196Z,37.96
2018-09-26T20:27:46.901Z,38.15
2018-09-26T20:30:23.124Z,38.12
2018-09-26T20:32:59.371Z,37.75
2018-09-26T20:35:34.969Z,38.78
2018-09-26T20:38:10.789Z,37.46
2018-09-26T20:40:46.155Z,38.15
2018-09-26T20:44:32.525Z,38.06
2018-09-26T20:47:08.341Z,38.71
2018-09-26T20:49:44.154Z,37.92
2018-09-26T20:52:19.640Z,37.85
2018-09-26T20:54:55.439Z,38.58
2018-09-26T20:57:31.477Z,37.67
2018-09-26T21:00:07.167Z,37.39
2018-09-26T21:02:42.537Z,37.21
2018-09-26T21:07:44.292Z,38.25
2018-09-26T21:12:15.286Z,37.10
2018-09-26T21:14:51.321Z,38.27
2018-09-26T21:17:26.767Z,37.76
2018-09-26T21:21:05.002Z,38.12
2018-09-26T21:23:41.338Z,38.25
2018-09-26T21:26:17.192Z,38.24
2018-09-26T21:28:52.895Z,38.37
2018-09-26T21:31:29.056Z,38.04
2018-09-26T21:34:05.179Z,37.16
2018-09-26T21:36:41.173Z,37.04
2018-09-26T21:39:17.513Z,37.77
2018-09-26T21:41:53.624Z,37.58
2018-09-26T21:44:29.377Z,37.56
2018-09-26T21:47:05.385Z,37.02
2018-09-26T21:49:41.414Z,38.16
2018-09-26T21:52:15.414Z,36.93
2018-09-26T21:54:51.301Z,36.99
2018-09-26T21:57:27.346Z,37.35
2018-09-26T22:00:03.073Z,37.60
2018-09-26T22:02:39.354Z,37.05
2018-09-26T22:05:15.557Z,37.05
2018-09-26T22:07:51.526Z,37.31
2018-09-26T22:10:27.330Z,37.10
2018-09-26T22:13:03.089Z,37.22
2018-09-26T22:15:39.096Z,37.12
2018-09-26T22:18:15.091Z,36.74
2018-09-26T22:20:51.181Z,36.97
2018-09-26T22:23:27.450Z,36.56
2018-09-26T22:26:03.553Z,36.48
2018-09-26T22:28:40.186Z,37.20
2018-09-26T22:31:16.243Z,36.53
2018-09-26T22:33:52.241Z,36.76
2018-09-26T22:36:28.369Z,36.13
2018-09-26T22:39:04.949Z,37.38
2018-09-26T22:41:40.528Z,36.36
2018-09-26T22:44:16.048Z,36.76
2018-09-26T22:46:51.533Z,36.62
2018-09-26T22:49:27.177Z,36.23
2018-09-26T22:52:02.944Z,37.22
2018-09-26T22:54:38.551Z,36.93
2018-09-26T22:57:14.133Z,36.01
2018-09-26T22:59:49.667Z,36.97
2018-09-26T23:02:25.204Z,36.63
2018-09-26T23:05:00.546Z,36.70
2018-09-26T23:07:35.961Z,35.99
2018-09-26T23:10:11.374Z,36.62
2018-09-26T23:12:46.860Z,35.96
2018-09-26T23:15:22.205Z,36.47
2018-09-26T23:17:57.953Z,36.64
2018-09-26T23:20:33.554Z,35.95
2018-09-26T23:23:09.123Z,37.04
2018-09-26T23:25:44.557Z,36.24
2018-09-26T23:28:20.221Z,36.26
2018-09-26T23:30:55.873Z,36.89
2018-09-26T23:33:31.496Z,37.04
2018-09-26T23:36:07.211Z,36.87
2018-09-26T23:38:42.873Z,36.90
2018-09-26T23:41:18.405Z,36.68
2018-09-26T23:43:53.979Z,36.08
2018-09-26T23:46:29.577Z,36.36
2018-09-26T23:49:04.966Z,36.28
2018-09-26T23:51:40.560Z,36.25
2018-09-26T23:54:16.551Z,36.53
2018-09-26T23:56:52.223Z,35.51
2018-09-26T23:59:27.982Z,36.06
